Time;durP1;ratioP1;P1;durP2;ratioP2;P2;SDS_P1;SDS_P2;PMS_P1;PMS_P2;Temp;Humidity;BMP_temperature;BMP_pressure;BME280_temperature;BME280_humidity;BME280_pressure;Samples;Min_cycle;Max_cycle;Signal;HPM_P1;HPM_P2
2022/10/18 00:01:05;;;;;;;78.95;53.92;;;19.00;97.70;;;;;;6339048;22;20447;-78
2022/10/18 00:03:32;;;;;;;77.35;47.97;;;19.00;97.60;;;;;;6338201;22;20468;-78
2022/10/18 00:05:58;;;;;;;69.05;46.88;;;19.00;97.60;;;;;;6338746;22;20400;-78
2022/10/18 00:08:25;;;;;;;67.30;45.25;;;19.00;97.40;;;;;;6337013;22;20015;-78
2022/10/18 00:10:51;;;;;;;71.78;47.10;;;19.00;97.30;;;;;;6337871;22;20054;-78
2022/10/18 00:13:17;;;;;;;77.13;51.88;;;19.00;97.10;;;;;;6338527;22;20405;-76
2022/10/18 00:15:54;;;;;;;79.90;51.35;;;19.00;96.60;;;;;;6338276;22;20010;-77
2022/10/18 00:18:20;;;;;;;75.85;47.42;;;18.90;96.70;;;;;;6338815;22;19999;-77
2022/10/18 00:20:55;;;;;;;74.82;48.63;;;18.80;96.70;;;;;;6337559;22;20006;-77
2022/10/18 00:23:20;;;;;;;71.95;47.60;;;18.70;96.90;;;;;;6338159;22;20021;-77
2022/10/18 00:25:46;;;;;;;64.07;41.95;;;18.60;96.90;;;;;;6338051;22;20460;-77
2022/10/18 00:28:11;;;;;;;63.28;42.72;;;18.60;96.80;;;;;;6338720;22;20301;-78
2022/10/18 00:30:37;;;;;;;60.90;41.63;;;18.70;96.50;;;;;;6337927;22;20007;-78
2022/10/18 00:33:03;;;;;;;60.08;41.83;;;18.60;96.30;;;;;;6337995;22;20056;-78
2022/10/18 00:35:28;;;;;;;55.05;37.92;;;18.60;96.20;;;;;;6338145;22;20009;-77
2022/10/18 00:37:54;;;;;;;57.33;40.03;;;18.60;96.20;;;;;;6338615;22;20005;-78
2022/10/18 00:40:20;;;;;;;57.38;40.20;;;18.60;96.10;;;;;;6338248;22;19999;-82
2022/10/18 00:42:45;;;;;;;56.60;37.20;;;18.50;96.10;;;;;;6337656;22;20037;-82
2022/10/18 00:45:17;;;;;;;50.40;35.00;;;18.50;96.10;;;;;;6337608;22;20003;-82
2022/10/18 00:47:47;;;;;;;59.97;36.47;;;18.30;96.70;;;;;;6337642;22;20006;-82
2022/10/18 00:50:13;;;;;;;55.00;37.30;;;18.20;96.40;;;;;;6337257;22;20128;-82
2022/10/18 00:52:44;;;;;;;52.38;37.90;;;18.00;96.70;;;;;;6337288;22;20034;-81
2022/10/18 00:55:10;;;;;;;49.63;35.33;;;17.90;97.10;;;;;;6337499;22;20433;-82
2022/10/18 00:57:39;;;;;;;47.72;33.97;;;17.80;97.20;;;;;;6338832;22;20064;-82
2022/10/18 01:00:08;;;;;;;40.50;30.60;;;17.80;97.30;;;;;;6338632;22;20003;-82
2022/10/18 01:02:36;;;;;;;44.00;31.33;;;17.70;97.50;;;;;;6337870;22;19999;-82
2022/10/18 01:05:02;;;;;;;42.45;31.65;;;17.70;97.60;;;;;;6338225;22;20003;-85
2022/10/18 01:08:06;;;;;;;47.42;32.33;;;17.70;97.50;;;;;;6340156;22;20006;-85
2022/10/18 01:10:48;;;;;;;47.90;33.35;;;17.60;97.50;;;;;;6339663;22;20006;-84
2022/10/18 01:13:45;;;;;;;44.38;31.33;;;17.60;97.50;;;;;;6338365;22;20359;-85
2022/10/18 01:16:16;;;;;;;42.15;29.40;;;17.50;97.70;;;;;;6338981;22;20005;-83
2022/10/18 01:18:59;;;;;;;41.65;31.23;;;17.40;98.10;;;;;;6336495;22;20421;-85
2022/10/18 01:21:35;;;;;;;42.75;30.83;;;17.30;98.20;;;;;;6338353;22;20033;-84
2022/10/18 01:24:25;;;;;;;41.58;31.00;;;17.30;98.20;;;;;;6310520;22;20007;-85
2022/10/18 01:27:28;;;;;;;43.33;30.40;;;17.20;98.50;;;;;;6337251;22;20401;-84
2022/10/18 01:30:22;;;;;;;36.50;27.83;;;17.20;98.80;;;;;;6337841;22;20002;-85
2022/10/18 01:32:51;;;;;;;42.65;31.20;;;17.30;98.90;;;;;;6340307;22;20002;-84
2022/10/18 01:35:32;;;;;;;42.65;32.63;;;17.30;98.50;;;;;;6340098;22;20009;-84
2022/10/18 01:38:01;;;;;;;50.45;34.45;;;17.20;98.80;;;;;;6338655;22;19998;-83
2022/10/18 01:40:29;;;;;;;45.45;32.47;;;17.10;98.40;;;;;;6339981;22;19995;-83
2022/10/18 01:42:55;;;;;;;53.47;34.85;;;17.10;98.70;;;;;;6339351;22;19999;-83
2022/10/18 01:45:23;;;;;;;51.10;33.53;;;17.10;98.60;;;;;;6312212;22;20014;-83
2022/10/18 01:47:49;;;;;;;48.55;34.83;;;17.00;98.60;;;;;;6338928;22;19998;-83
2022/10/18 01:50:28;;;;;;;40.58;31.25;;;17.00;98.50;;;;;;6340481;22;19999;-82
2022/10/18 01:52:54;;;;;;;43.47;33.15;;;16.90;98.80;;;;;;6339021;22;20317;-83
2022/10/18 01:55:26;;;;;;;38.08;30.20;;;16.90;98.90;;;;;;6340352;22;20491;-82
2022/10/18 01:58:08;;;;;;;34.15;28.17;;;16.90;98.80;;;;;;6338604;22;20074;-82
2022/10/18 02:00:43;;;;;;;43.00;30.92;;;16.90;98.50;;;;;;6340486;22;20002;-82
2022/10/18 02:03:15;;;;;;;38.08;30.65;;;16.80;98.00;;;;;;6339205;22;20037;-81
2022/10/18 02:05:48;;;;;;;37.33;29.10;;;16.70;98.10;;;;;;6340181;22;20350;-83
2022/10/18 02:08:34;;;;;;;29.38;25.55;;;16.60;98.20;;;;;;6338644;22;20048;-82
2022/10/18 02:11:03;;;;;;;33.42;26.48;;;16.60;98.40;;;;;;6339566;22;20003;-81
2022/10/18 02:13:39;;;;;;;33.47;28.30;;;16.70;98.20;;;;;;6338094;22;20328;-82
2022/10/18 02:16:09;;;;;;;30.83;25.45;;;16.60;98.00;;;;;;6340155;22;20410;-82
2022/10/18 02:18:48;;;;;;;31.25;26.25;;;16.70;98.20;;;;;;6338663;22;19995;-82
2022/10/18 02:21:18;;;;;;;30.02;26.52;;;16.70;97.70;;;;;;6339261;22;20002;-83
2022/10/18 02:23:45;;;;;;;27.57;23.40;;;16.80;97.40;;;;;;6311374;22;20445;-83
2022/10/18 02:26:13;;;;;;;28.30;23.58;;;16.80;97.50;;;;;;6339932;22;20317;-83
2022/10/18 02:28:39;;;;;;;27.05;22.08;;;16.90;97.40;;;;;;6338606;22;20490;-84
2022/10/18 02:31:13;;;;;;;26.98;23.38;;;17.00;97.10;;;;;;6339154;22;20040;-84
2022/10/18 02:33:52;;;;;;;30.60;24.80;;;17.10;96.80;;;;;;6338807;22;20006;-83
2022/10/18 02:36:29;;;;;;;34.92;27.05;;;17.20;96.80;;;;;;6339567;22;20002;-85
2022/10/18 02:39:05;;;;;;;52.92;34.38;;;17.20;96.50;;;;;;6338821;22;19999;-83
2022/10/18 02:41:31;;;;;;;45.40;33.20;;;17.20;96.60;;;;;;6338156;22;19995;-82
2022/10/18 02:43:57;;;;;;;43.50;31.75;;;17.20;96.40;;;;;;6338015;22;20002;-83
2022/10/18 02:46:23;;;;;;;45.70;33.58;;;17.00;96.50;;;;;;6338720;22;20083;-82
2022/10/18 02:48:48;;;;;;;40.28;32.70;;;17.00;96.60;;;;;;6310721;22;20013;-83
2022/10/18 02:51:14;;;;;;;37.90;27.90;;;16.90;96.80;;;;;;6339192;22;20425;-80
2022/10/18 02:53:40;;;;;;;36.47;29.30;;;17.00;96.80;;;;;;6338925;22;20017;-80
2022/10/18 02:56:06;;;;;;;35.30;29.55;;;17.10;96.50;;;;;;6339460;22;20073;-79
2022/10/18 02:58:32;;;;;;;35.45;27.60;;;17.10;96.40;;;;;;6310618;22;19999;-81
2022/10/18 03:00:57;;;;;;;55.17;36.53;;;17.20;96.30;;;;;;6311364;22;20049;-80
2022/10/18 03:03:23;;;;;;;56.60;39.22;;;17.20;96.00;;;;;;6339639;22;20409;-80
2022/10/18 03:05:50;;;;;;;46.55;32.50;;;17.00;96.40;;;;;;6339595;22;20409;-82
2022/10/18 03:08:15;;;;;;;48.47;32.83;;;17.00;96.50;;;;;;6338683;22;20034;-81
2022/10/18 03:10:45;;;;;;;55.05;34.95;;;17.00;96.40;;;;;;6338966;22;19999;-80
2022/10/18 03:13:11;;;;;;;45.63;31.70;;;17.10;96.60;;;;;;6338815;22;20056;-81
2022/10/18 03:15:37;;;;;;;54.25;35.17;;;17.20;96.50;;;;;;6339701;22;20003;-82
2022/10/18 03:18:03;;;;;;;82.32;47.55;;;17.20;96.30;;;;;;6338816;22;20003;-84
2022/10/18 03:20:29;;;;;;;94.75;52.47;;;17.20;96.70;;;;;;6339505;22;20002;-82
2022/10/18 03:22:55;;;;;;;78.63;48.58;;;17.10;96.90;;;;;;6339205;22;20356;-84
2022/10/18 03:25:21;;;;;;;78.57;46.53;;;17.10;97.20;;;;;;6339533;22;19998;-82
2022/10/18 03:27:46;;;;;;;73.53;42.15;;;17.10;97.10;;;;;;6338888;22;19998;-83
2022/10/18 03:30:12;;;;;;;87.20;49.10;;;17.20;96.90;;;;;;6338821;22;20082;-84
2022/10/18 03:32:41;;;;;;;74.05;44.45;;;17.10;96.90;;;;;;6338739;22;19998;-82
2022/10/18 03:35:08;;;;;;;71.70;43.50;;;17.10;97.00;;;;;;6339508;22;20405;-84
2022/10/18 03:37:34;;;;;;;79.72;43.03;;;17.20;97.00;;;;;;6311931;22;20351;-84
2022/10/18 03:40:00;;;;;;;71.15;42.67;;;17.20;96.80;;;;;;6338032;22;20025;-83
2022/10/18 03:42:26;;;;;;;64.80;39.30;;;17.20;96.50;;;;;;6339112;22;20003;-82
2022/10/18 03:44:52;;;;;;;62.85;38.10;;;17.30;96.60;;;;;;6339476;22;20005;-83
2022/10/18 03:47:17;;;;;;;59.28;38.58;;;17.30;96.50;;;;;;6311291;22;20078;-82
2022/10/18 03:49:43;;;;;;;56.30;36.67;;;17.40;96.20;;;;;;6338263;22;19999;-82
2022/10/18 03:52:09;;;;;;;55.42;36.65;;;17.40;96.40;;;;;;6338319;22;20092;-82
2022/10/18 03:54:34;;;;;;;59.63;40.22;;;17.40;96.00;;;;;;6338164;22;20428;-82
2022/10/18 03:57:00;;;;;;;64.93;38.63;;;17.40;96.00;;;;;;6338608;22;20017;-84
2022/10/18 03:59:26;;;;;;;59.83;36.78;;;17.40;96.10;;;;;;6338985;22;19998;-85
2022/10/18 04:01:51;;;;;;;56.90;37.15;;;17.40;96.20;;;;;;6339063;22;20070;-85
2022/10/18 04:04:17;;;;;;;53.60;35.42;;;17.40;96.20;;;;;;6339706;22;20072;-85
2022/10/18 04:06:43;;;;;;;52.00;35.67;;;17.40;96.30;;;;;;6339361;22;19999;-85
2022/10/18 04:09:09;;;;;;;56.97;36.67;;;17.40;96.40;;;;;;6339198;22;20006;-86
2022/10/18 04:11:35;;;;;;;67.45;41.13;;;17.30;96.50;;;;;;6338623;22;20003;-86
2022/10/18 04:14:00;;;;;;;73.30;44.25;;;17.10;96.50;;;;;;6339119;22;20094;-83
2022/10/18 04:16:26;;;;;;;87.00;47.38;;;17.00;97.00;;;;;;6338606;22;20022;-83
2022/10/18 04:18:52;;;;;;;96.78;47.05;;;16.80;97.50;;;;;;6337628;22;20003;-83
2022/10/18 04:21:17;;;;;;;97.53;47.35;;;16.70;98.20;;;;;;6338270;22;20455;-84
2022/10/18 04:23:45;;;;;;;97.53;49.53;;;16.60;98.60;;;;;;6311109;22;20023;-83
2022/10/18 04:26:11;;;;;;;102.93;50.08;;;16.50;98.90;;;;;;6336475;22;20007;-83
2022/10/18 04:28:38;;;;;;;111.85;48.65;;;16.50;99.20;;;;;;6338907;22;19999;-82
2022/10/18 04:31:05;;;;;;;101.75;48.45;;;16.40;98.90;;;;;;6338464;22;20003;-83
2022/10/18 04:33:31;;;;;;;90.18;46.92;;;16.40;99.40;;;;;;6339204;22;19995;-85
2022/10/18 04:35:56;;;;;;;92.95;48.65;;;16.40;99.40;;;;;;6338151;22;20013;-83
2022/10/18 04:38:22;;;;;;;97.78;48.55;;;16.40;99.50;;;;;;6338233;22;20336;-83
2022/10/18 04:40:48;;;;;;;94.22;46.92;;;16.40;99.40;;;;;;6338460;22;20002;-84
2022/10/18 04:43:14;;;;;;;96.55;47.72;;;16.30;99.70;;;;;;6310225;22;20488;-84
2022/10/18 04:45:43;;;;;;;109.35;49.17;;;16.30;99.70;;;;;;6338105;22;20417;-84
2022/10/18 04:48:09;;;;;;;104.75;49.25;;;16.30;99.40;;;;;;6336905;22;20013;-84
2022/10/18 04:50:35;;;;;;;95.47;49.03;;;16.20;99.80;;;;;;6339021;22;19999;-87
2022/10/18 04:53:00;;;;;;;93.35;48.13;;;16.30;99.90;;;;;;6338317;22;20063;-85
2022/10/18 04:55:26;;;;;;;92.28;47.47;;;16.30;99.80;;;;;;6338746;22;20047;-86
2022/10/18 04:57:52;;;;;;;93.68;45.78;;;16.30;99.60;;;;;;6337530;22;19995;-82
2022/10/18 05:00:18;;;;;;;94.85;46.50;;;16.40;99.60;;;;;;6337329;22;20047;-82
2022/10/18 05:02:43;;;;;;;96.70;46.95;;;16.40;99.10;;;;;;6336353;22;19999;-82
2022/10/18 05:05:09;;;;;;;89.20;44.78;;;16.30;99.10;;;;;;6337263;22;20317;-82
2022/10/18 05:07:35;;;;;;;92.72;45.33;;;16.30;99.20;;;;;;6336120;22;20467;-84
2022/10/18 05:10:01;;;;;;;94.68;48.30;;;16.30;99.10;;;;;;6336383;22;20002;-82
2022/10/18 05:12:26;;;;;;;91.47;42.90;;;16.30;99.10;;;;;;6336723;22;20010;-82
2022/10/18 05:14:52;;;;;;;96.75;45.00;;;16.30;99.10;;;;;;6336519;22;20030;-82
2022/10/18 05:17:17;;;;;;;90.07;46.17;;;16.30;98.80;;;;;;6335217;22;20044;-82
2022/10/18 05:19:43;;;;;;;103.30;49.05;;;16.20;99.10;;;;;;6335439;22;20052;-81
2022/10/18 05:22:09;;;;;;;96.78;46.72;;;16.10;99.20;;;;;;6335922;22;20097;-81
2022/10/18 05:24:34;;;;;;;91.50;46.08;;;16.00;99.30;;;;;;6337354;22;19998;-82
2022/10/18 05:27:00;;;;;;;98.25;44.83;;;16.00;99.40;;;;;;6336828;22;20009;-84
2022/10/18 05:29:26;;;;;;;94.25;44.72;;;16.00;99.30;;;;;;6334083;22;20007;-80
2022/10/18 05:31:51;;;;;;;77.28;42.13;;;16.00;99.00;;;;;;6337883;22;19999;-82
2022/10/18 05:34:30;;;;;;;80.90;41.15;;;15.90;99.30;;;;;;6339488;22;20049;-81
2022/10/18 05:36:57;;;;;;;79.43;40.83;;;15.90;98.80;;;;;;6345826;22;19999;-81
2022/10/18 05:39:23;;;;;;;76.72;40.50;;;15.90;98.90;;;;;;6311367;22;19999;-82
2022/10/18 05:41:49;;;;;;;71.25;40.38;;;15.80;99.00;;;;;;6338017;22;20027;-82
2022/10/18 05:44:14;;;;;;;74.10;41.28;;;15.70;98.80;;;;;;6338306;22;20071;-80
2022/10/18 05:46:40;;;;;;;76.88;40.40;;;15.60;99.30;;;;;;6338251;22;20003;-80
2022/10/18 05:49:06;;;;;;;67.97;40.42;;;15.60;99.30;;;;;;6311563;22;20003;-82
2022/10/18 05:51:31;;;;;;;84.75;41.53;;;15.60;99.20;;;;;;6337996;22;20042;-82
2022/10/18 05:53:57;;;;;;;82.50;41.03;;;15.50;99.50;;;;;;6337458;22;20383;-81
2022/10/18 05:56:23;;;;;;;74.15;40.88;;;15.30;99.80;;;;;;6337992;22;20431;-80
2022/10/18 05:58:50;;;;;;;64.95;38.72;;;15.30;99.90;;;;;;6338263;22;20021;-81
2022/10/18 06:01:16;;;;;;;61.28;39.95;;;15.30;99.90;;;;;;6337859;22;20002;-81
2022/10/18 06:03:42;;;;;;;60.28;37.90;;;15.40;99.90;;;;;;6338084;22;20006;-81
2022/10/18 06:06:10;;;;;;;63.63;39.78;;;15.40;99.90;;;;;;6337815;22;20349;-81
2022/10/18 06:08:38;;;;;;;59.13;37.30;;;15.40;99.90;;;;;;6337703;22;20003;-81
2022/10/18 06:11:08;;;;;;;58.63;37.50;;;15.40;99.90;;;;;;6337579;22;19999;-81
2022/10/18 06:13:37;;;;;;;51.35;36.53;;;15.40;99.90;;;;;;6310284;22;20010;-81
2022/10/18 06:16:04;;;;;;;57.07;36.50;;;15.50;99.90;;;;;;6338499;22;20072;-81
2022/10/18 06:18:29;;;;;;;56.58;35.75;;;15.60;99.50;;;;;;6338183;22;20296;-80
2022/10/18 06:20:57;;;;;;;57.00;36.47;;;15.50;99.40;;;;;;6304013;22;20467;-79
2022/10/18 06:23:22;;;;;;;48.22;34.17;;;15.50;99.30;;;;;;6337454;22;20004;-80
2022/10/18 06:25:48;;;;;;;49.03;33.70;;;15.60;99.60;;;;;;6310098;22;20002;-79
2022/10/18 06:28:14;;;;;;;50.75;33.50;;;15.60;99.40;;;;;;6336959;22;20013;-80
2022/10/18 06:30:39;;;;;;;49.50;33.47;;;15.50;99.40;;;;;;6336508;22;20052;-80
2022/10/18 06:33:05;;;;;;;45.97;32.55;;;15.50;99.60;;;;;;6335904;22;20444;-78
2022/10/18 06:35:30;;;;;;;56.47;33.80;;;15.60;99.70;;;;;;6336523;22;20485;-79
2022/10/18 06:37:56;;;;;;;100.10;36.20;;;15.60;99.20;;;;;;6335387;22;20026;-80
2022/10/18 06:40:22;;;;;;;85.72;36.72;;;15.40;99.90;;;;;;6310155;22;20455;-79
2022/10/18 06:42:48;;;;;;;56.13;34.30;;;15.30;99.90;;;;;;6310359;22;19999;-80
2022/10/18 06:45:17;;;;;;;63.90;34.90;;;15.30;99.90;;;;;;6308927;22;20010;-80
2022/10/18 06:47:42;;;;;;;55.53;34.28;;;15.30;99.90;;;;;;6329368;22;20732;-80
2022/10/18 06:50:10;;;;;;;52.10;33.83;;;15.30;99.90;;;;;;6335031;22;20007;-80
2022/10/18 06:52:35;;;;;;;52.38;34.72;;;15.40;99.90;;;;;;6307885;22;20017;-78
2022/10/18 06:55:01;;;;;;;60.92;35.15;;;15.50;99.90;;;;;;6336174;22;20034;-79
2022/10/18 06:57:27;;;;;;;56.00;34.55;;;15.40;99.90;;;;;;6336949;22;20002;-79
2022/10/18 06:59:53;;;;;;;61.58;37.42;;;15.30;99.90;;;;;;6336597;22;20389;-79
2022/10/18 07:02:18;;;;;;;57.22;35.45;;;15.40;99.90;;;;;;6337405;22;20019;-79
2022/10/18 07:04:44;;;;;;;51.13;33.17;;;15.50;99.90;;;;;;6337097;22;20009;-79
2022/10/18 07:07:10;;;;;;;57.63;35.38;;;15.50;99.90;;;;;;6308756;22;20697;-79
2022/10/18 07:09:36;;;;;;;50.05;34.35;;;15.60;99.90;;;;;;6337223;22;20034;-80
2022/10/18 07:12:02;;;;;;;44.75;30.40;;;15.60;99.90;;;;;;6337019;22;20417;-80
2022/10/18 07:14:27;;;;;;;45.22;30.55;;;15.80;99.90;;;;;;6337309;22;20429;-79
2022/10/18 07:16:53;;;;;;;42.50;29.98;;;15.90;99.90;;;;;;6335866;22;20124;-80
2022/10/18 07:19:19;;;;;;;45.08;30.75;;;16.10;99.90;;;;;;6336341;22;20128;-80
2022/10/18 07:21:44;;;;;;;45.58;28.88;;;16.20;98.80;;;;;;6308939;22;19999;-80
2022/10/18 07:24:10;;;;;;;44.13;30.38;;;16.40;98.50;;;;;;6336457;22;20053;-80
2022/10/18 07:26:35;;;;;;;46.83;31.83;;;16.40;98.00;;;;;;6336615;22;20007;-80
2022/10/18 07:29:06;;;;;;;39.65;29.20;;;16.50;97.70;;;;;;6307512;22;20081;-80
2022/10/18 07:31:33;;;;;;;40.33;27.77;;;16.50;97.80;;;;;;6335606;22;19999;-80
2022/10/18 07:33:58;;;;;;;40.90;29.50;;;16.60;97.50;;;;;;6335144;22;20002;-77
2022/10/18 07:36:25;;;;;;;48.83;32.10;;;16.70;97.60;;;;;;6335369;22;20120;-78
2022/10/18 07:38:51;;;;;;;52.72;34.13;;;16.80;96.90;;;;;;6335759;22;20002;-78
2022/10/18 07:41:28;;;;;;;43.03;31.45;;;16.70;97.10;;;;;;6335698;22;19999;-78
2022/10/18 07:43:54;;;;;;;49.05;31.13;;;16.70;97.30;;;;;;6308029;22;20003;-79
2022/10/18 07:46:21;;;;;;;42.58;29.98;;;16.70;97.00;;;;;;6335730;22;20102;-78
2022/10/18 07:48:48;;;;;;;50.13;33.92;;;16.80;97.30;;;;;;6302632;22;20110;-78
2022/10/18 07:51:14;;;;;;;62.17;38.55;;;17.00;97.50;;;;;;6337917;22;20042;-78
2022/10/18 07:53:40;;;;;;;63.85;38.88;;;16.80;96.80;;;;;;6338074;22;20002;-78
2022/10/18 07:56:10;;;;;;;57.25;37.13;;;16.80;97.20;;;;;;6310090;22;20321;-79
2022/10/18 07:58:36;;;;;;;62.63;37.85;;;16.60;97.40;;;;;;6338389;22;20078;-79
2022/10/18 08:01:04;;;;;;;62.15;38.55;;;16.40;97.90;;;;;;6338032;22;20037;-79
2022/10/18 08:03:31;;;;;;;60.03;37.22;;;16.50;98.50;;;;;;6310538;22;20137;-79
2022/10/18 08:05:57;;;;;;;60.72;39.00;;;16.50;98.30;;;;;;6336647;22;20006;-80
2022/10/18 08:08:24;;;;;;;65.55;40.30;;;16.60;98.20;;;;;;6309390;22;20006;-79
2022/10/18 08:10:50;;;;;;;60.67;37.20;;;16.70;97.90;;;;;;6337912;22;20017;-80
2022/10/18 08:13:16;;;;;;;49.22;32.03;;;16.70;98.10;;;;;;6336408;22;20074;-79
2022/10/18 08:15:42;;;;;;;48.70;27.80;;;16.90;98.20;;;;;;6337701;22;20003;-78
2022/10/18 08:18:11;;;;;;;45.33;28.10;;;17.20;98.10;;;;;;6337283;22;20074;-79
2022/10/18 08:20:42;;;;;;;49.90;30.33;;;17.40;97.90;;;;;;6337037;22;20021;-77
2022/10/18 08:23:08;;;;;;;54.70;35.40;;;17.70;97.10;;;;;;6338146;22;19994;-79
2022/10/18 08:25:33;;;;;;;47.55;31.05;;;17.90;96.10;;;;;;6310153;22;20033;-80
2022/10/18 08:28:00;;;;;;;50.40;33.20;;;18.10;95.80;;;;;;6337718;22;20077;-80
2022/10/18 08:30:26;;;;;;;60.17;38.42;;;18.30;95.20;;;;;;6337424;22;19999;-80
2022/10/18 08:32:52;;;;;;;56.22;33.92;;;18.40;94.70;;;;;;6337674;22;20070;-80
2022/10/18 08:35:39;;;;;;;55.80;36.67;;;18.50;94.80;;;;;;6337513;22;20034;-80
2022/10/18 08:38:09;;;;;;;60.80;38.38;;;18.60;94.60;;;;;;6337075;22;20002;-79
2022/10/18 08:40:35;;;;;;;51.55;32.10;;;18.80;94.00;;;;;;6338011;22;19999;-80
2022/10/18 08:43:24;;;;;;;49.55;35.00;;;18.90;93.80;;;;;;6337669;22;20048;-81
2022/10/18 08:45:53;;;;;;;49.95;31.80;;;19.10;93.70;;;;;;6337707;22;20029;-80
2022/10/18 08:48:40;;;;;;;43.45;29.10;;;19.30;93.50;;;;;;6309712;22;20007;-81
2022/10/18 08:51:17;;;;;;;49.15;32.40;;;19.50;93.10;;;;;;6337254;22;20487;-81
2022/10/18 08:53:55;;;;;;;46.45;31.77;;;19.70;92.90;;;;;;6308940;22;20103;-82
2022/10/18 08:56:23;;;;;;;43.80;30.33;;;19.90;92.60;;;;;;6336801;22;20017;-82
2022/10/18 08:58:49;;;;;;;50.67;31.65;;;20.10;92.10;;;;;;6337111;22;20079;-81
2022/10/18 09:01:30;;;;;;;46.45;31.13;;;20.20;91.70;;;;;;6336809;22;20075;-82
2022/10/18 09:04:38;;;;;;;49.63;32.92;;;20.40;91.60;;;;;;6337527;22;20001;-82
2022/10/18 09:07:59;;;;;;;45.10;30.10;;;20.50;91.10;;;;;;6337567;22;20021;-81
2022/10/18 09:10:58;;;;;;;49.03;32.83;;;20.70;90.80;;;;;;6241973;23;20028;-81
2022/10/18 09:13:50;;;;;;;45.92;30.42;;;20.80;90.50;;;;;;6309338;22;20056;-82
2022/10/18 09:16:24;;;;;;;59.28;38.63;;;20.80;90.60;;;;;;6310000;22;20028;-82
2022/10/18 09:19:19;;;;;;;52.50;34.65;;;20.80;90.50;;;;;;6337947;22;19995;-82
2022/10/18 09:21:53;;;;;;;48.85;31.73;;;20.80;90.50;;;;;;6338117;22;20005;-82
2022/10/18 09:24:47;;;;;;;45.60;29.38;;;20.80;90.80;;;;;;6337894;22;20005;-82
2022/10/18 09:27:19;;;;;;;52.15;33.35;;;21.10;90.40;;;;;;6337678;22;20010;-82
2022/10/18 09:30:22;;;;;;;52.03;33.75;;;21.20;90.30;;;;;;6338262;22;20011;-82
2022/10/18 09:33:16;;;;;;;52.03;32.85;;;21.30;90.10;;;;;;6274799;22;20205;-81
2022/10/18 09:36:03;;;;;;;46.58;30.65;;;21.30;89.80;;;;;;6337986;22;20431;-81
2022/10/18 09:38:48;;;;;;;40.90;28.48;;;21.40;89.90;;;;;;6337610;22;20003;-81
2022/10/18 09:41:19;;;;;;;53.58;34.03;;;21.70;89.70;;;;;;6338347;22;20002;-82
2022/10/18 09:43:50;;;;;;;47.75;31.20;;;21.90;88.70;;;;;;6309826;22;20003;-80
2022/10/18 09:46:20;;;;;;;55.30;35.42;;;21.90;88.40;;;;;;6337551;22;19998;-81
2022/10/18 09:48:54;;;;;;;;;;;22.10;88.10;;;;;;6339063;22;20010;-80
2022/10/18 09:51:25;;;;;;;44.20;28.50;;;22.00;87.90;;;;;;6336957;22;19902;-79
2022/10/18 09:53:53;;;;;;;44.42;28.08;;;22.20;88.40;;;;;;6339744;22;20007;-79
2022/10/18 09:56:36;;;;;;;55.85;36.17;;;22.40;88.10;;;;;;6339918;22;20329;-81
2022/10/18 09:59:05;;;;;;;48.58;30.52;;;22.50;86.60;;;;;;6340346;22;20052;-79
2022/10/18 10:01:32;;;;;;;42.10;28.95;;;22.70;86.60;;;;;;6339956;22;19999;-80
2022/10/18 10:03:58;;;;;;;49.10;31.42;;;22.90;86.20;;;;;;6311569;22;20011;-80
2022/10/18 10:06:33;;;;;;;52.72;33.50;;;23.00;85.40;;;;;;6339027;22;20619;-79
2022/10/18 10:09:05;;;;;;;51.45;34.92;;;23.20;84.80;;;;;;6311691;22;20003;-80
2022/10/18 10:11:35;;;;;;;53.83;34.88;;;23.30;83.60;;;;;;6338227;22;19999;-78
2022/10/18 10:14:25;;;;;;;46.88;31.00;;;23.30;83.30;;;;;;6339337;22;20048;-78
2022/10/18 10:17:04;;;;;;;46.33;30.38;;;23.40;83.60;;;;;;6339722;22;20006;-77
2022/10/18 10:19:37;;;;;;;55.08;35.38;;;23.50;83.10;;;;;;6339116;22;20336;-78
2022/10/18 10:22:11;;;;;;;48.30;32.38;;;23.70;82.70;;;;;;6339696;22;20013;-78
2022/10/18 10:24:50;;;;;;;53.63;34.95;;;23.80;82.90;;;;;;6338834;22;20056;-79
2022/10/18 10:27:20;;;;;;;54.35;38.38;;;24.00;81.40;;;;;;6339404;22;20045;-79
2022/10/18 10:29:46;;;;;;;50.47;33.35;;;24.00;81.10;;;;;;6339547;22;20409;-79
2022/10/18 10:32:14;;;;;;;49.30;31.90;;;24.00;81.90;;;;;;6312423;22;20009;-79
2022/10/18 10:34:40;;;;;;;46.25;32.47;;;24.10;81.90;;;;;;6339574;22;20010;-79
2022/10/18 10:37:25;;;;;;;46.63;31.33;;;24.30;81.70;;;;;;6339307;22;20355;-79
2022/10/18 10:40:16;;;;;;;45.30;30.45;;;24.40;81.00;;;;;;6316988;22;20009;-80
2022/10/18 10:42:56;;;;;;;49.85;31.90;;;24.70;80.70;;;;;;6327826;22;20535;-79
2022/10/18 10:45:23;;;;;;;45.78;30.85;;;24.70;80.40;;;;;;6339516;22;20579;-78
2022/10/18 10:48:00;;;;;;;46.15;29.30;;;24.70;80.80;;;;;;6339770;22;20048;-78
2022/10/18 10:50:27;;;;;;;43.25;28.48;;;24.90;80.80;;;;;;6339091;22;19999;-79
2022/10/18 10:52:54;;;;;;;50.83;32.25;;;25.00;80.60;;;;;;6339106;22;20424;-79
2022/10/18 10:55:27;;;;;;;47.72;32.70;;;25.10;79.00;;;;;;6338734;22;20053;-79
2022/10/18 10:57:54;;;;;;;39.58;28.80;;;25.30;78.20;;;;;;6337544;22;20432;-80
2022/10/18 11:00:43;;;;;;;41.80;28.38;;;25.30;78.50;;;;;;6334000;22;20009;-79
2022/10/18 11:03:17;;;;;;;47.05;28.23;;;25.30;78.50;;;;;;6309425;22;20423;-80
2022/10/18 11:05:48;;;;;;;44.85;30.00;;;25.40;78.40;;;;;;6337217;22;20030;-80
2022/10/18 11:08:27;;;;;;;46.55;28.88;;;25.50;77.90;;;;;;6307972;22;20003;-80
2022/10/18 11:11:04;;;;;;;48.08;31.02;;;25.60;77.40;;;;;;6336148;22;19999;-80
2022/10/18 11:13:34;;;;;;;43.25;28.27;;;25.70;76.60;;;;;;6337335;22;19999;-81
2022/10/18 11:16:09;;;;;;;47.28;30.20;;;25.70;76.10;;;;;;6338164;22;20002;-81
2022/10/18 11:18:36;;;;;;;52.78;34.58;;;25.80;75.70;;;;;;6310737;22;20367;-81
2022/10/18 11:21:18;;;;;;;49.83;31.60;;;25.70;75.70;;;;;;6337986;22;20056;-80
2022/10/18 11:23:44;;;;;;;49.63;29.50;;;25.80;76.20;;;;;;6338820;22;19999;-80
2022/10/18 11:26:10;;;;;;;58.55;35.90;;;26.10;75.70;;;;;;6338157;22;20010;-80
2022/10/18 11:28:46;;;;;;;39.42;26.85;;;26.30;73.90;;;;;;6338537;22;20022;-80
2022/10/18 11:31:21;;;;;;;47.47;33.20;;;26.50;74.40;;;;;;6338231;22;20002;-80
2022/10/18 11:34:23;;;;;;;62.42;35.38;;;26.80;73.30;;;;;;6338275;22;20003;-80
2022/10/18 11:37:11;;;;;;;46.97;30.50;;;27.00;71.90;;;;;;6338051;22;20011;-80
2022/10/18 11:39:57;;;;;;;52.97;35.72;;;27.30;71.70;;;;;;6337402;22;19998;-80
2022/10/18 11:42:59;;;;;;;48.90;34.65;;;27.50;70.60;;;;;;6336528;22;20027;-79
2022/10/18 11:46:04;;;;;;;54.17;40.42;;;27.70;70.30;;;;;;6336765;22;20409;-79
2022/10/18 11:48:54;;;;;;;51.17;35.45;;;27.80;69.30;;;;;;6284364;22;20009;-79
2022/10/18 11:51:29;;;;;;;55.70;34.92;;;28.00;69.20;;;;;;6337149;22;20404;-79
2022/10/18 11:54:03;;;;;;;59.10;40.25;;;28.10;68.80;;;;;;6335798;22;20077;-78
2022/10/18 11:56:48;;;;;;;54.72;37.17;;;28.30;68.60;;;;;;6308628;22;20090;-78
2022/10/18 11:59:14;;;;;;;52.55;36.67;;;28.40;67.90;;;;;;6336479;22;20070;-78
2022/10/18 12:01:46;;;;;;;55.50;38.45;;;28.40;68.00;;;;;;6337464;22;20077;-79
2022/10/18 12:04:22;;;;;;;58.55;40.28;;;28.60;67.60;;;;;;6337126;22;19999;-78
2022/10/18 12:06:51;;;;;;;52.15;39.20;;;28.50;67.90;;;;;;6337353;22;20066;-79
2022/10/18 12:09:43;;;;;;;59.60;39.35;;;28.40;67.40;;;;;;6336704;22;19995;-80
2022/10/18 12:12:31;;;;;;;61.95;41.78;;;28.40;67.70;;;;;;6308498;22;20006;-79
2022/10/18 12:15:18;;;;;;;56.03;37.90;;;28.20;68.50;;;;;;6308309;22;20010;-80
2022/10/18 12:17:52;;;;;;;65.20;42.83;;;28.20;68.40;;;;;;6308703;22;20002;-80
2022/10/18 12:20:38;;;;;;;58.65;40.00;;;28.20;67.90;;;;;;6308100;22;20007;-80
2022/10/18 12:23:13;;;;;;;62.90;43.33;;;28.10;67.90;;;;;;6336815;22;20313;-78
2022/10/18 12:25:43;;;;;;;64.25;45.00;;;28.10;68.40;;;;;;6336539;22;20007;-79
2022/10/18 12:28:49;;;;;;;60.92;40.33;;;27.90;68.20;;;;;;6309373;22;20517;-79
2022/10/18 12:31:21;;;;;;;55.17;38.95;;;28.00;68.30;;;;;;6308011;22;20007;-78
2022/10/18 12:33:55;;;;;;;60.75;42.63;;;28.00;68.90;;;;;;6337261;22;20072;-78
2022/10/18 12:36:20;;;;;;;64.28;38.45;;;28.10;68.50;;;;;;6310338;22;20002;-79
2022/10/18 12:39:11;;;;;;;53.53;35.90;;;28.20;68.70;;;;;;6337448;22;20060;-80
2022/10/18 12:41:37;;;;;;;54.63;39.22;;;28.20;68.20;;;;;;6338065;22;20002;-83
2022/10/18 12:44:17;;;;;;;59.40;42.33;;;28.20;68.70;;;;;;6336609;22;20325;-80
2022/10/18 12:47:03;;;;;;;49.42;36.63;;;28.20;68.10;;;;;;6335767;22;19995;-83
2022/10/18 12:49:37;;;;;;;58.70;36.92;;;28.00;68.60;;;;;;6336486;22;20332;-83